createdAt,value
2023-01-03T00:01:59.535Z,16.23
2023-01-03T00:04:26.813Z,16.75
2023-01-03T00:07:12.301Z,16.92
2023-01-03T00:09:39.235Z,18.60
2023-01-03T00:12:30.484Z,17.42
2023-01-03T00:14:59.465Z,17.33
2023-01-03T00:17:27.691Z,17.00
2023-01-03T00:19:55.012Z,19.20
2023-01-03T00:22:23.146Z,17.27
2023-01-03T00:24:51.942Z,17.02
2023-01-03T00:27:37.725Z,18.95
2023-01-03T00:30:05.535Z,16.35
2023-01-03T00:32:32.601Z,17.65
2023-01-03T00:35:04.718Z,17.58
2023-01-03T00:37:37.142Z,17.65
2023-01-03T00:40:04.947Z,17.52
2023-01-03T00:42:53.323Z,16.13
2023-01-03T00:45:39.599Z,17.20
2023-01-03T00:48:06.677Z,17.55
2023-01-03T00:50:36.872Z,17.73
2023-01-03T00:53:03.801Z,18.42
2023-01-03T00:55:30.667Z,18.45
2023-01-03T00:57:57.538Z,18.48
2023-01-03T01:00:28.773Z,18.25
2023-01-03T01:02:56.256Z,18.30
2023-01-03T01:05:31.098Z,20.17
2023-01-03T01:07:59.186Z,20.40
2023-01-03T01:10:26.076Z,19.98
2023-01-03T01:12:57.003Z,20.83
2023-01-03T01:15:24.035Z,21.17
2023-01-03T01:17:50.951Z,21.05
2023-01-03T01:20:18.030Z,20.95
2023-01-03T01:22:46.164Z,20.42
2023-01-03T01:25:13.115Z,19.48
2023-01-03T01:27:40.032Z,19.30
2023-01-03T01:30:07.592Z,22.08
2023-01-03T01:32:34.567Z,20.75
2023-01-03T01:35:19.892Z,20.50
2023-01-03T01:37:46.809Z,21.58
2023-01-03T01:40:13.702Z,21.65
2023-01-03T01:42:59.047Z,24.92
2023-01-03T01:45:26.019Z,22.30
2023-01-03T01:48:07.847Z,24.05
2023-01-03T01:50:40.059Z,21.85
2023-01-03T01:53:43.982Z,22.10
2023-01-03T01:56:20.923Z,23.73
2023-01-03T01:58:50.667Z,22.50
2023-01-03T02:01:20.492Z,22.67
2023-01-03T02:03:55.614Z,21.45
2023-01-03T02:06:24.505Z,20.67
2023-01-03T02:08:51.794Z,23.48
2023-01-03T02:11:25.112Z,21.92
2023-01-03T02:14:27.536Z,22.42
2023-01-03T02:17:17.340Z,21.90
2023-01-03T02:20:14.715Z,20.85
2023-01-03T02:23:09.331Z,20.98
2023-01-03T02:25:39.337Z,20.23
2023-01-03T02:28:45.265Z,19.00
2023-01-03T02:31:25.406Z,18.63
2023-01-03T02:34:03.922Z,18.02
2023-01-03T02:36:53.814Z,18.52
2023-01-03T02:39:40.998Z,18.67
2023-01-03T02:42:42.675Z,17.75
2023-01-03T02:45:16.773Z,18.00
2023-01-03T02:48:03.777Z,17.50
2023-01-03T02:50:39.597Z,16.70
2023-01-03T02:53:09.883Z,17.08
2023-01-03T02:55:44.942Z,18.23
2023-01-03T02:58:20.844Z,16.55
2023-01-03T03:00:53.140Z,17.52
2023-01-03T03:03:27.054Z,16.08
2023-01-03T03:06:15.835Z,18.20
2023-01-03T03:08:46.114Z,17.55
2023-01-03T03:11:32.613Z,18.00
2023-01-03T03:14:17.948Z,15.88
2023-01-03T03:16:50.243Z,17.13
2023-01-03T03:19:40.580Z,17.55
2023-01-03T03:22:48.795Z,16.17
2023-01-03T03:25:54.756Z,15.73
2023-01-03T03:28:35.871Z,15.02
2023-01-03T03:31:29.902Z,15.80
2023-01-03T03:34:23.557Z,15.52
2023-01-03T03:36:54.419Z,16.80
2023-01-03T03:39:40.911Z,16.88
2023-01-03T03:42:59.810Z,16.85
2023-01-03T03:45:38.971Z,16.95
2023-01-03T03:48:18.171Z,16.77
2023-01-03T03:51:03.974Z,17.02
2023-01-03T03:53:35.290Z,16.65
2023-01-03T03:56:26.006Z,15.35
2023-01-03T03:58:58.015Z,15.52
2023-01-03T04:01:27.351Z,14.88
2023-01-03T04:04:00.497Z,15.10
2023-01-03T04:06:38.368Z,14.32
2023-01-03T04:09:05.592Z,15.10
2023-01-03T04:11:32.438Z,14.80
2023-01-03T04:13:59.379Z,15.02
2023-01-03T04:16:26.329Z,14.85
2023-01-03T04:18:53.429Z,13.07
2023-01-03T04:21:21.203Z,14.02
2023-01-03T04:23:48.747Z,15.05
2023-01-03T04:26:16.035Z,14.00
2023-01-03T04:28:43.005Z,13.15
2023-01-03T04:31:09.981Z,13.23
2023-01-03T04:33:37.131Z,13.32
2023-01-03T04:36:04.351Z,15.43
2023-01-03T04:38:31.366Z,14.98
2023-01-03T04:41:04.931Z,15.82
2023-01-03T04:43:54.792Z,15.35
2023-01-03T04:49:27.683Z,14.88
2023-01-03T04:51:54.595Z,15.15
2023-01-03T04:54:21.565Z,15.52
2023-01-03T04:56:48.483Z,14.15
2023-01-03T04:59:15.413Z,14.43
2023-01-03T05:01:52.256Z,15.02
2023-01-03T05:04:19.526Z,13.77
2023-01-03T05:07:05.169Z,14.90
2023-01-03T05:09:32.123Z,14.73
2023-01-03T05:11:59.171Z,14.55
2023-01-03T05:14:26.111Z,15.60
2023-01-03T05:17:11.570Z,15.07
2023-01-03T05:19:58.561Z,16.33
2023-01-03T05:22:44.161Z,15.27
2023-01-03T05:25:29.814Z,15.00
2023-01-03T05:27:58.377Z,15.55
2023-01-03T05:30:25.802Z,14.27
2023-01-03T05:32:52.718Z,15.32
2023-01-03T05:35:19.611Z,14.63
2023-01-03T05:37:46.903Z,13.82
2023-01-03T05:40:13.956Z,14.30
2023-01-03T05:42:40.894Z,13.55
2023-01-03T05:45:09.084Z,15.07
2023-01-03T05:47:35.955Z,15.70
2023-01-03T05:50:02.884Z,14.82
2023-01-03T05:52:29.784Z,15.88
2023-01-03T05:54:56.868Z,13.50
2023-01-03T05:57:24.737Z,16.05
2023-01-03T06:02:36.185Z,15.40
2023-01-03T06:05:03.078Z,14.70
2023-01-03T06:07:31.433Z,15.63
2023-01-03T06:09:58.347Z,16.00
2023-01-03T06:12:44.186Z,16.77
2023-01-03T06:15:11.269Z,16.20
2023-01-03T06:17:59.073Z,16.45
2023-01-03T06:20:27.265Z,15.68
2023-01-03T06:22:54.714Z,16.00
2023-01-03T06:25:22.820Z,15.65
2023-01-03T06:27:49.863Z,16.75
2023-01-03T06:30:16.939Z,16.38
2023-01-03T06:32:44.537Z,17.60
2023-01-03T06:35:12.107Z,14.25
2023-01-03T06:37:39.141Z,15.45
2023-01-03T06:40:07.804Z,15.07
2023-01-03T06:42:53.901Z,14.55
2023-01-03T06:45:39.183Z,14.98
2023-01-03T06:48:42.408Z,13.65
2023-01-03T06:51:29.529Z,13.65
2023-01-03T06:54:21.153Z,13.40
2023-01-03T06:56:48.352Z,13.52
2023-01-03T06:59:15.204Z,14.27
2023-01-03T07:01:42.323Z,15.68
2023-01-03T07:04:09.278Z,15.43
2023-01-03T07:06:36.369Z,15.47
2023-01-03T07:09:03.535Z,14.93
2023-01-03T07:11:30.636Z,14.93
2023-01-03T07:13:58.976Z,15.88
2023-01-03T07:16:53.737Z,15.25
2023-01-03T07:19:21.394Z,16.27
2023-01-03T07:21:48.333Z,14.68
2023-01-03T07:24:18.785Z,13.70
2023-01-03T07:26:45.876Z,14.32
2023-01-03T07:29:13.667Z,14.40
2023-01-03T07:31:44.112Z,13.43
2023-01-03T07:34:11.108Z,13.95
2023-01-03T07:36:38.172Z,13.80
2023-01-03T07:39:05.274Z,12.82
2023-01-03T07:41:50.888Z,13.55
2023-01-03T07:44:19.446Z,13.52
2023-01-03T07:46:46.403Z,11.82
2023-01-03T07:49:13.412Z,11.70
2023-01-03T07:51:40.509Z,12.77
2023-01-03T07:54:07.965Z,13.20
2023-01-03T07:56:35.282Z,12.88
2023-01-03T07:59:02.450Z,12.98
2023-01-03T08:01:30.656Z,13.02
2023-01-03T08:03:58.109Z,13.57
2023-01-03T08:06:25.684Z,13.20
2023-01-03T08:09:11.394Z,12.43
2023-01-03T08:11:57.611Z,13.07
2023-01-03T08:14:26.500Z,12.45
2023-01-03T08:16:55.138Z,13.00
2023-01-03T08:19:22.278Z,11.95
2023-01-03T08:21:49.217Z,11.85
2023-01-03T08:24:16.154Z,11.45
2023-01-03T08:26:43.115Z,12.75
2023-01-03T08:29:10.066Z,12.95
2023-01-03T08:31:42.713Z,12.32
2023-01-03T08:34:18.605Z,12.00
2023-01-03T08:36:52.060Z,12.45
2023-01-03T08:39:24.638Z,12.57
2023-01-03T08:41:59.521Z,11.30
2023-01-03T08:44:26.882Z,12.25
2023-01-03T08:46:55.823Z,12.13
2023-01-03T08:49:23.214Z,11.73
2023-01-03T08:51:50.143Z,11.32
2023-01-03T08:57:01.162Z,11.65
2023-01-03T08:59:28.255Z,11.77
2023-01-03T09:02:02.008Z,12.00
2023-01-03T09:04:29.207Z,12.18
2023-01-03T09:06:56.718Z,12.38
2023-01-03T09:09:23.608Z,12.65
2023-01-03T09:11:50.625Z,12.40
2023-01-03T09:14:17.603Z,11.85
2023-01-03T09:16:48.910Z,12.88
2023-01-03T09:19:16.400Z,11.25
2023-01-03T09:21:43.385Z,11.45
2023-01-03T09:24:10.360Z,11.27
2023-01-03T09:26:56.018Z,11.38
2023-01-03T09:29:23.336Z,11.40
2023-01-03T09:31:51.573Z,12.52
2023-01-03T09:34:18.933Z,12.20
2023-01-03T09:36:45.855Z,12.50
2023-01-03T09:39:14.462Z,13.32
2023-01-03T09:41:42.247Z,13.10
2023-01-03T09:44:10.456Z,14.07
2023-01-03T09:46:38.090Z,13.07
2023-01-03T09:49:07.414Z,13.68
2023-01-03T09:52:00.557Z,13.45
2023-01-03T09:54:56.349Z,13.55
2023-01-03T09:57:51.499Z,14.25
2023-01-03T10:00:54.694Z,13.35
2023-01-03T10:03:51.688Z,12.95
2023-01-03T10:06:47.474Z,13.25
2023-01-03T10:09:23.314Z,13.55
2023-01-03T10:12:21.380Z,13.18
2023-01-03T10:15:00.972Z,14.75
2023-01-03T10:17:49.058Z,14.70
2023-01-03T10:20:33.932Z,14.07
2023-01-03T10:23:01.276Z,14.35
2023-01-03T10:25:29.444Z,13.52
2023-01-03T10:28:06.802Z,13.98
2023-01-03T10:31:08.591Z,13.40
2023-01-03T10:33:39.800Z,13.00
2023-01-03T10:36:08.753Z,14.45
2023-01-03T10:38:44.709Z,12.68
2023-01-03T10:41:44.631Z,15.05
2023-01-03T10:44:25.813Z,14.20
2023-01-03T10:46:55.295Z,12.75
2023-01-03T10:49:28.306Z,14.15
2023-01-03T10:52:14.795Z,12.95
2023-01-03T10:54:42.263Z,13.70
2023-01-03T10:57:39.944Z,13.93
2023-01-03T11:00:25.106Z,13.88
2023-01-03T11:02:53.602Z,13.23
2023-01-03T11:05:24.500Z,12.88
2023-01-03T11:08:04.376Z,13.55
2023-01-03T11:10:39.038Z,13.68
2023-01-03T11:15:58.684Z,12.50
2023-01-03T11:18:29.356Z,12.90
2023-01-03T11:21:08.196Z,13.77
2023-01-03T11:24:14.193Z,12.60
2023-01-03T11:26:43.982Z,11.82
2023-01-03T11:29:39.876Z,13.82
2023-01-03T11:32:25.588Z,14.02
2023-01-03T11:35:40.295Z,15.02
2023-01-03T11:38:45.576Z,14.30
2023-01-03T11:41:41.440Z,13.05
2023-01-03T11:44:36.960Z,13.93
2023-01-03T11:47:18.482Z,13.23
2023-01-03T11:49:54.317Z,13.00
2023-01-03T11:52:39.828Z,13.07
2023-01-03T11:55:48.350Z,12.93
2023-01-03T11:58:33.946Z,13.23
2023-01-03T12:01:08.288Z,12.75
2023-01-03T12:03:44.043Z,13.20
2023-01-03T12:06:16.439Z,12.88
2023-01-03T12:09:13.432Z,11.15
2023-01-03T12:11:40.818Z,11.55
2023-01-03T12:14:16.177Z,9.93
2023-01-03T12:17:06.274Z,10.43
2023-01-03T12:19:46.089Z,10.10
2023-01-03T12:22:32.709Z,11.00
2023-01-03T12:25:17.578Z,10.32
2023-01-03T12:28:15.364Z,9.82
2023-01-03T12:30:52.302Z,9.15
2023-01-03T12:33:54.380Z,7.40
2023-01-03T12:37:01.062Z,5.50
2023-01-03T12:39:36.754Z,8.43
2023-01-03T12:42:22.207Z,6.72
2023-01-03T12:47:51.423Z,7.10
2023-01-03T12:50:36.365Z,8.00
2023-01-03T12:56:12.824Z,6.90
2023-01-03T12:58:51.858Z,6.60
2023-01-03T13:01:27.175Z,6.03
2023-01-03T13:04:00.642Z,7.00
2023-01-03T13:06:33.064Z,6.28
2023-01-03T13:09:04.506Z,7.50
2023-01-03T13:11:43.962Z,6.45
2023-01-03T13:14:26.379Z,6.90
2023-01-03T13:16:57.076Z,7.78
2023-01-03T13:19:24.065Z,8.70
2023-01-03T13:21:53.768Z,9.32
2023-01-03T13:25:19.218Z,11.60
2023-01-03T13:27:51.378Z,15.93
2023-01-03T13:30:30.953Z,14.50
2023-01-03T13:33:00.602Z,14.68
2023-01-03T13:35:33.612Z,14.65
2023-01-03T13:38:24.566Z,16.17
2023-01-03T13:43:50.690Z,15.38
2023-01-03T13:46:31.754Z,16.00
2023-01-03T13:49:22.781Z,15.13
2023-01-03T13:51:54.957Z,14.55
2023-01-03T13:54:21.868Z,13.93
2023-01-03T13:56:48.725Z,14.30
2023-01-03T13:59:15.739Z,18.42
2023-01-03T14:02:26.518Z,14.77
2023-01-03T14:05:21.039Z,14.02
2023-01-03T14:08:35.572Z,13.88
2023-01-03T14:11:40.245Z,13.80
2023-01-03T14:14:12.967Z,13.57
2023-01-03T14:16:47.982Z,12.15
2023-01-03T14:19:32.592Z,12.18
2023-01-03T14:22:14.085Z,13.25
2023-01-03T14:24:50.256Z,13.10
2023-01-03T14:27:24.469Z,12.93
2023-01-03T14:35:32.801Z,13.75
2023-01-03T14:38:06.450Z,10.27
2023-01-03T14:43:05.377Z,10.20
2023-01-03T14:45:32.378Z,12.55
2023-01-03T14:47:59.447Z,10.10
2023-01-03T14:50:29.285Z,10.50
2023-01-03T14:52:59.072Z,9.43
2023-01-03T14:55:29.610Z,9.85
2023-01-03T14:57:58.815Z,9.27
2023-01-03T15:00:36.562Z,10.35
2023-01-03T15:03:05.623Z,9.38
2023-01-03T15:08:43.583Z,10.40
2023-01-03T15:14:06.682Z,9.52
2023-01-03T15:16:40.871Z,9.18
2023-01-03T15:19:07.813Z,9.80
2023-01-03T15:21:35.560Z,10.13
2023-01-03T15:24:03.100Z,10.05
2023-01-03T15:26:36.145Z,9.05
2023-01-03T15:29:20.715Z,10.00
2023-01-03T15:31:53.609Z,8.77
2023-01-03T15:34:41.942Z,9.95
2023-01-03T15:37:24.476Z,9.75
2023-01-03T15:39:54.985Z,8.85
2023-01-03T15:42:50.134Z,9.52
2023-01-03T15:45:44.478Z,10.70
2023-01-03T15:48:19.358Z,10.27
2023-01-03T15:50:56.093Z,9.43
2023-01-03T15:53:41.177Z,9.60
2023-01-03T15:56:27.955Z,9.98
2023-01-03T15:58:56.773Z,8.88
2023-01-03T16:01:24.951Z,8.48
2023-01-03T16:03:53.661Z,7.63
2023-01-03T16:06:21.015Z,8.02
2023-01-03T16:08:48.148Z,8.10
2023-01-03T16:11:33.815Z,9.20
2023-01-03T16:14:21.471Z,7.75
2023-01-03T16:16:54.396Z,7.88
2023-01-03T16:19:24.733Z,8.45
2023-01-03T16:22:32.416Z,7.47
2023-01-03T16:24:46.571Z,8.27
2023-01-03T16:27:20.147Z,7.65
2023-01-03T16:29:47.704Z,8.18
2023-01-03T16:32:17.724Z,8.68
2023-01-03T16:34:44.912Z,8.80
2023-01-03T16:37:11.913Z,8.85
2023-01-03T16:39:45.763Z,7.32
2023-01-03T16:42:19.993Z,9.43
2023-01-03T16:45:06.171Z,9.18
2023-01-03T16:47:35.129Z,9.32
2023-01-03T16:50:23.004Z,7.68
2023-01-03T16:52:55.400Z,9.05
2023-01-03T16:55:32.759Z,9.43
2023-01-03T16:58:00.580Z,12.43
2023-01-03T17:00:32.149Z,16.08
2023-01-03T17:03:00.649Z,9.25
2023-01-03T17:05:48.076Z,8.45
2023-01-03T17:08:30.639Z,8.38
2023-01-03T17:10:58.685Z,10.13
2023-01-03T17:16:17.819Z,9.10
2023-01-03T17:18:46.015Z,9.30
2023-01-03T17:21:25.839Z,16.27
2023-01-03T17:23:57.257Z,17.08
2023-01-03T17:26:25.416Z,11.82
2023-01-03T17:28:55.162Z,9.27
2023-01-03T17:31:24.529Z,10.77
2023-01-03T17:33:52.378Z,8.70
2023-01-03T17:36:25.564Z,9.20
2023-01-03T17:38:54.931Z,9.18
2023-01-03T17:41:25.272Z,9.82
2023-01-03T17:43:53.771Z,13.85
2023-01-03T17:46:43.119Z,10.23
2023-01-03T17:49:26.845Z,10.85
2023-01-03T17:51:55.685Z,10.65
2023-01-03T17:54:31.743Z,10.05
2023-01-03T17:56:59.550Z,10.25
2023-01-03T17:59:27.116Z,11.10
2023-01-03T18:02:02.491Z,10.20
2023-01-03T18:04:50.067Z,10.90
2023-01-03T18:07:22.644Z,10.32
2023-01-03T18:09:51.091Z,8.50
2023-01-03T18:12:19.678Z,8.20
2023-01-03T18:14:48.360Z,7.30
2023-01-03T18:17:30.435Z,8.52
2023-01-03T18:19:59.080Z,7.43
2023-01-03T18:22:32.065Z,7.55
2023-01-03T18:24:59.058Z,8.05
2023-01-03T18:27:27.719Z,7.72
2023-01-03T18:29:54.768Z,7.22
2023-01-03T18:32:27.234Z,8.05
2023-01-03T18:34:56.750Z,7.80
2023-01-03T18:37:28.771Z,7.85
2023-01-03T18:39:56.119Z,7.03
2023-01-03T18:42:41.683Z,7.07
2023-01-03T18:45:12.028Z,7.70
2023-01-03T18:47:39.039Z,7.75
2023-01-03T18:50:07.131Z,7.15
2023-01-03T18:52:59.805Z,8.57
2023-01-03T18:55:30.190Z,10.40
2023-01-03T18:58:00.368Z,7.70
2023-01-03T19:00:27.678Z,7.10
2023-01-03T19:02:54.928Z,8.35
2023-01-03T19:08:08.371Z,7.47
2023-01-03T19:10:35.336Z,7.10
2023-01-03T19:13:02.208Z,7.22
2023-01-03T19:15:30.564Z,7.20
2023-01-03T19:17:58.032Z,7.00
2023-01-03T19:20:27.174Z,7.18
2023-01-03T19:22:55.883Z,6.78
2023-01-03T19:25:26.409Z,8.25
2023-01-03T19:27:56.226Z,8.30
2023-01-03T19:30:38.763Z,7.28
2023-01-03T19:33:11.284Z,7.88
2023-01-03T19:35:38.236Z,8.48
2023-01-03T19:38:05.725Z,7.68
2023-01-03T19:40:34.495Z,6.93
2023-01-03T19:43:02.437Z,6.90
2023-01-03T19:45:32.827Z,8.82
2023-01-03T19:48:02.533Z,7.90
2023-01-03T19:50:33.325Z,7.50
2023-01-03T19:53:04.050Z,7.65
2023-01-03T19:55:33.571Z,7.55
2023-01-03T19:58:04.934Z,7.97
2023-01-03T20:00:32.860Z,7.75
2023-01-03T20:05:48.120Z,8.45
2023-01-03T20:08:15.047Z,8.52
2023-01-03T20:10:44.019Z,7.38
2023-01-03T20:13:23.476Z,8.27
2023-01-03T20:15:53.092Z,7.95
2023-01-03T20:18:35.929Z,8.02
2023-01-03T20:21:24.022Z,7.93
2023-01-03T20:23:58.195Z,7.30
2023-01-03T20:26:30.810Z,7.70
2023-01-03T20:28:59.001Z,7.45
2023-01-03T20:31:26.446Z,7.32
2023-01-03T20:33:53.432Z,7.55
2023-01-03T20:36:27.755Z,6.90
2023-01-03T20:38:56.396Z,7.35
2023-01-03T20:41:36.578Z,7.50
2023-01-03T20:44:05.906Z,8.07
2023-01-03T20:46:41.963Z,7.57
2023-01-03T20:49:24.571Z,7.60
2023-01-03T20:51:51.828Z,7.22
2023-01-03T20:54:37.348Z,7.28
2023-01-03T20:57:13.847Z,7.00
2023-01-03T20:59:40.917Z,7.53
2023-01-03T21:02:10.778Z,7.80
2023-01-03T21:04:39.108Z,8.57
2023-01-03T21:07:11.464Z,7.57
2023-01-03T21:09:38.804Z,7.47
2023-01-03T21:12:05.794Z,8.32
2023-01-03T21:14:32.744Z,8.05
2023-01-03T21:16:59.748Z,8.77
2023-01-03T21:19:26.732Z,8.48
2023-01-03T21:21:55.241Z,7.93
2023-01-03T21:24:24.819Z,8.55
2023-01-03T21:26:51.801Z,9.32
2023-01-03T21:29:18.790Z,8.88
2023-01-03T21:31:54.926Z,9.23
2023-01-03T21:34:22.152Z,9.73
2023-01-03T21:36:49.296Z,9.38
2023-01-03T21:39:16.347Z,10.18
2023-01-03T21:42:02.046Z,9.70
2023-01-03T21:44:29.036Z,9.63
2023-01-03T21:46:56.014Z,9.40
2023-01-03T21:49:23.131Z,9.93
2023-01-03T21:51:50.007Z,9.73
2023-01-03T21:54:17.159Z,9.15
2023-01-03T21:57:23.329Z,8.80
2023-01-03T21:59:50.625Z,9.18
2023-01-03T22:02:36.159Z,9.90
2023-01-03T22:05:03.464Z,9.73
2023-01-03T22:07:32.798Z,9.63
2023-01-03T22:10:18.599Z,10.15
2023-01-03T22:12:58.122Z,9.35
2023-01-03T22:15:25.954Z,9.75
2023-01-03T22:17:53.700Z,9.57
2023-01-03T22:20:23.343Z,9.52
2023-01-03T22:22:50.441Z,9.90
2023-01-03T22:25:21.156Z,10.00
2023-01-03T22:27:48.477Z,10.57
2023-01-03T22:30:17.994Z,10.00
2023-01-03T22:32:45.611Z,9.75
2023-01-03T22:35:14.852Z,11.50
2023-01-03T22:37:42.506Z,10.65
2023-01-03T22:40:13.512Z,10.68
2023-01-03T22:42:41.350Z,9.85
2023-01-03T22:45:09.899Z,12.18
2023-01-03T22:47:37.954Z,9.82
2023-01-03T22:50:07.328Z,10.02
2023-01-03T22:52:35.352Z,11.20
2023-01-03T22:55:02.329Z,11.40
2023-01-03T22:57:29.749Z,10.13
2023-01-03T22:59:56.621Z,11.70
2023-01-03T23:02:29.316Z,11.13
2023-01-03T23:04:56.358Z,11.25
2023-01-03T23:07:24.417Z,10.35
2023-01-03T23:09:51.599Z,10.82
2023-01-03T23:12:36.924Z,11.02
2023-01-03T23:15:04.751Z,11.38
2023-01-03T23:17:50.314Z,9.57
2023-01-03T23:20:19.378Z,12.35
2023-01-03T23:22:46.240Z,10.90
2023-01-03T23:25:13.157Z,10.70
2023-01-03T23:27:40.140Z,11.38
2023-01-03T23:30:07.716Z,11.38
2023-01-03T23:32:34.759Z,11.43
2023-01-03T23:35:01.658Z,11.50
2023-01-03T23:37:28.756Z,11.52
2023-01-03T23:39:55.625Z,10.80
2023-01-03T23:42:22.561Z,11.07
2023-01-03T23:44:49.647Z,10.55
2023-01-03T23:47:16.544Z,10.25
2023-01-03T23:49:43.459Z,11.70
2023-01-03T23:52:10.516Z,10.20
2023-01-03T23:55:00.746Z,11.07
2023-01-03T23:57:29.466Z,9.73
2023-01-03T23:59:56.451Z,10.55
